Time;durP1;ratioP1;P1;durP2;ratioP2;P2;SDS_P1;SDS_P2;PMS_P1;PMS_P2;Temp;Humidity;BMP_temperature;BMP_pressure;BME280_temperature;BME280_humidity;BME280_pressure;Samples;Min_cycle;Max_cycle;Signal;HPM_P1;HPM_P2
2021/09/14 00:00:15;;;;;;;15.10;8.30;;;;;;;18.27;62.38;99239.22;233926;1198;139390;-63
2021/09/14 00:05:38;;;;;;;13.70;9.60;;;;;;;18.22;62.52;99238.96;234200;1198;139257;-63
2021/09/14 00:10:41;;;;;;;15.90;10.00;;;;;;;18.18;62.53;99235.52;234184;1198;139095;-70
2021/09/14 00:15:44;;;;;;;13.50;9.70;;;;;;;18.17;62.77;99235.48;234137;1198;139553;-63
2021/09/14 00:20:47;;;;;;;13.70;9.60;;;;;;;18.18;62.88;99234.27;234117;1198;139780;-61
2021/09/14 00:25:50;;;;;;;13.30;9.20;;;;;;;18.21;62.88;99228.49;234181;1198;139172;-61
2021/09/14 00:30:53;;;;;;;17.80;9.70;;;;;;;18.24;63.03;99231.83;234089;1199;139164;-61
2021/09/14 00:35:57;;;;;;;14.90;10.20;;;;;;;18.23;63.03;99232.21;234263;1198;138750;-62
2021/09/14 00:41:00;;;;;;;16.40;9.70;;;;;;;18.22;63.19;99232.89;233978;1198;139316;-67
2021/09/14 00:46:04;;;;;;;13.60;9.90;;;;;;;18.23;63.10;99228.15;234124;1197;138851;-65
2021/09/14 00:51:07;;;;;;;19.60;11.50;;;;;;;18.20;63.23;99226.59;233861;1198;139086;-64
2021/09/14 00:56:10;;;;;;;22.10;12.80;;;;;;;18.18;63.32;99220.29;234154;1198;138901;-64
2021/09/14 01:01:13;;;;;;;21.70;12.00;;;;;;;18.21;63.54;99218.45;234022;1198;139573;-67
2021/09/14 01:06:17;;;;;;;22.00;14.90;;;;;;;18.24;63.58;99218.36;234143;1198;140215;-65
2021/09/14 01:11:20;;;;;;;23.00;15.80;;;;;;;18.28;63.79;99223.30;233970;1198;139214;-67
2021/09/14 01:16:23;;;;;;;26.50;17.00;;;;;;;18.32;63.87;99218.84;234171;1198;139124;-63
2021/09/14 01:21:28;;;;;;;26.60;19.00;;;;;;;18.36;64.05;99214.16;234198;1198;138941;-63
2021/09/14 01:26:33;;;;;;;27.80;19.40;;;;;;;18.37;64.03;99217.48;233903;1198;138783;-64
2021/09/14 01:31:38;;;;;;;24.80;17.90;;;;;;;18.34;64.26;99216.88;234119;1198;139031;-63
2021/09/14 01:36:42;;;;;;;29.30;17.80;;;;;;;18.34;64.36;99217.59;234143;1194;139398;-63
2021/09/14 01:41:45;;;;;;;30.90;20.60;;;;;;;18.37;64.55;99216.80;234291;1198;139056;-64
2021/09/14 01:46:51;;;;;;;30.60;20.80;;;;;;;18.37;64.67;99216.09;234123;1198;138835;-64
2021/09/14 01:51:55;;;;;;;29.80;21.50;;;;;;;18.34;64.60;99219.17;234084;1198;138846;-63
2021/09/14 01:57:00;;;;;;;33.30;22.20;;;;;;;18.30;64.70;99225.73;233998;1198;139864;-64
2021/09/14 02:02:20;;;;;;;31.30;20.90;;;;;;;18.24;64.80;99231.30;233683;1198;138742;-66
2021/09/14 02:24:00;;;;;;;24.70;16.00;;;;;;;18.13;65.16;99237.60;234156;1198;139392;-66
2021/09/14 02:39:51;;;;;;;30.10;14.90;;;;;;;17.92;64.99;99232.84;234145;1198;138829;-66
2021/09/14 03:00:59;;;;;;;25.30;16.70;;;;;;;17.64;65.33;99228.14;234034;1198;139413;-62
2021/09/14 03:06:02;;;;;;;29.10;17.00;;;;;;;17.55;65.31;99227.85;234317;1198;140115;-62
2021/09/14 03:11:09;;;;;;;21.80;14.50;;;;;;;17.49;65.53;99228.77;233791;1198;139462;-61
2021/09/14 03:16:15;;;;;;;21.60;14.40;;;;;;;17.45;65.61;99226.94;234155;1198;141820;-62
2021/09/14 03:21:22;;;;;;;22.30;15.80;;;;;;;17.44;65.55;99227.04;233910;1198;141505;-60
2021/09/14 03:26:25;;;;;;;23.50;16.30;;;;;;;17.35;65.45;99226.39;234149;1197;138910;-63
2021/09/14 03:31:28;;;;;;;23.00;16.40;;;;;;;17.28;65.50;99224.15;234214;1198;138751;-63
2021/09/14 03:36:31;;;;;;;24.10;15.50;;;;;;;17.18;65.77;99219.77;234260;1197;138954;-65
2021/09/14 03:41:39;;;;;;;22.40;15.20;;;;;;;17.08;65.68;99219.05;234324;1198;139101;-66
2021/09/14 03:46:42;;;;;;;22.40;15.40;;;;;;;17.00;65.89;99223.33;234209;1197;139867;-61
2021/09/14 03:51:46;;;;;;;22.00;15.90;;;;;;;16.97;66.09;99220.56;234075;1196;139207;-65
2021/09/14 03:56:49;;;;;;;23.80;15.90;;;;;;;16.95;66.09;99227.55;234217;1196;139347;-62
2021/09/14 04:01:55;;;;;;;26.50;17.30;;;;;;;16.92;66.04;99226.55;234189;1198;138810;-62
2021/09/14 04:12:13;;;;;;;24.60;15.50;;;;;;;16.74;66.14;99235.71;234157;1197;138675;-62
2021/09/14 04:17:17;;;;;;;21.70;14.50;;;;;;;16.67;66.16;99240.06;234101;1198;139562;-65
2021/09/14 04:22:20;;;;;;;22.80;16.00;;;;;;;16.66;66.44;99240.86;234244;1198;139477;-65
2021/09/14 04:27:23;;;;;;;121.50;83.60;;;;;;;16.65;66.35;99242.39;233809;1198;139281;-62
2021/09/14 04:32:26;;;;;;;29.80;20.50;;;;;;;16.79;67.67;99243.89;234227;1198;139601;-68
2021/09/14 04:37:30;;;;;;;25.50;14.70;;;;;;;17.28;68.43;99247.84;234178;1198;139085;-66
2021/09/14 04:42:33;;;;;;;201.80;152.20;;;;;;;17.55;68.08;99253.15;234052;1198;139556;-67
2021/09/14 04:47:36;;;;;;;30.40;20.90;;;;;;;17.66;66.96;99253.42;234312;1197;139172;-69
2021/09/14 04:52:39;;;;;;;165.60;115.20;;;;;;;17.72;67.38;99253.29;233819;1198;139240;-66
2021/09/14 04:57:43;;;;;;;35.20;18.00;;;;;;;17.86;67.07;99246.73;234253;1197;139027;-69
2021/09/14 05:02:46;;;;;;;40.20;28.60;;;;;;;17.80;66.28;99261.98;233964;1198;140325;-64
2021/09/14 05:07:49;;;;;;;24.70;14.60;;;;;;;17.76;66.41;99266.41;234086;1199;138892;-61
2021/09/14 05:12:52;;;;;;;226.60;172.90;;;;;;;17.64;66.02;99269.44;234067;1198;140364;-60
2021/09/14 05:17:55;;;;;;;30.60;17.90;;;;;;;17.84;67.34;99271.95;234217;1198;139602;-61
2021/09/14 05:23:16;;;;;;;24.80;14.80;;;;;;;18.03;66.89;99273.73;233910;1198;138394;-63
2021/09/14 05:28:19;;;;;;;20.30;13.40;;;;;;;18.02;66.48;99279.70;234190;1198;138503;-60
2021/09/14 05:33:22;;;;;;;18.80;11.60;;;;;;;18.02;66.58;99279.39;233941;1198;138860;-61
2021/09/14 05:38:27;;;;;;;25.10;11.90;;;;;;;18.03;66.62;99276.19;234233;1198;139067;-62
2021/09/14 05:43:32;;;;;;;22.30;14.20;;;;;;;18.08;66.46;99276.31;234135;1198;142017;-62
2021/09/14 05:48:39;;;;;;;22.20;11.90;;;;;;;18.20;66.80;99283.54;234131;1198;139289;-61
2021/09/14 05:53:44;;;;;;;22.50;12.90;;;;;;;18.21;65.99;99283.80;233908;1198;139049;-62
2021/09/14 05:58:47;;;;;;;24.00;12.80;;;;;;;18.13;65.72;99283.82;233913;1198;139145;-61
2021/09/14 06:03:52;;;;;;;23.50;12.80;;;;;;;18.03;65.64;99278.20;234111;1198;138612;-63
2021/09/14 06:08:57;;;;;;;294.40;197.00;;;;;;;18.06;66.30;99278.30;234012;1198;140745;-64
2021/09/14 06:14:00;;;;;;;22.80;10.80;;;;;;;18.23;66.50;99281.81;233677;1198;140000;-64
2021/09/14 06:19:03;;;;;;;31.20;13.40;;;;;;;18.24;65.56;99288.05;233440;1199;139667;-63
2021/09/14 06:24:08;;;;;;;22.90;10.50;;;;;;;18.22;65.61;99283.50;234298;1198;139211;-61
2021/09/14 06:29:11;;;;;;;28.70;12.10;;;;;;;18.21;65.39;99279.14;234243;1198;139605;-62
2021/09/14 06:34:15;;;;;;;29.40;12.50;;;;;;;18.20;65.44;99281.86;234221;1198;138755;-62
2021/09/14 06:39:18;;;;;;;34.80;18.10;;;;;;;18.17;65.34;99281.42;234198;1198;139061;-62
2021/09/14 06:44:22;;;;;;;34.90;15.40;;;;;;;18.26;66.00;99282.98;234126;1198;139239;-66
2021/09/14 06:49:32;;;;;;;31.80;20.20;;;;;;;18.51;65.94;99283.92;233701;1198;139434;-61
2021/09/14 06:54:35;;;;;;;30.10;20.00;;;;;;;18.75;66.19;99276.89;234255;1198;139495;-62
2021/09/14 06:59:38;;;;;;;26.70;16.90;;;;;;;19.06;66.29;99275.66;234444;1197;138958;-60
2021/09/14 07:04:42;;;;;;;22.60;14.60;;;;;;;19.28;65.77;99277.55;234280;1198;138779;-64
2021/09/14 07:09:45;;;;;;;19.90;10.80;;;;;;;19.40;65.35;99275.51;234227;1198;140196;-62
2021/09/14 07:14:48;;;;;;;55.40;37.50;;;;;;;19.52;65.23;99275.44;234083;1198;138738;-62
2021/09/14 07:19:51;;;;;;;16.60;8.70;;;;;;;19.58;65.01;99274.15;234138;1198;140128;-61
2021/09/14 07:24:54;;;;;;;18.60;8.60;;;;;;;19.56;64.25;99279.39;234253;1198;139128;-63
2021/09/14 07:29:57;;;;;;;13.70;9.30;;;;;;;19.50;63.84;99282.16;234395;1198;139274;-60
2021/09/14 07:35:02;;;;;;;34.40;23.90;;;;;;;19.45;63.96;99289.64;233913;1198;138795;-66
2021/09/14 07:40:06;;;;;;;259.10;162.40;;;;;;;19.51;64.27;99287.41;234274;1197;139109;-63
2021/09/14 07:45:09;;;;;;;27.50;18.90;;;;;;;19.61;64.28;99286.83;234046;1198;139794;-62
2021/09/14 07:50:14;;;;;;;25.50;16.10;;;;;;;19.68;63.87;99285.89;234048;1198;139424;-62
2021/09/14 07:55:18;;;;;;;30.90;18.30;;;;;;;19.72;63.91;99291.42;234121;1198;140659;-65
2021/09/14 08:00:21;;;;;;;21.60;14.60;;;;;;;19.84;63.91;99295.98;234214;1198;139293;-62
2021/09/14 08:05:26;;;;;;;23.90;12.90;;;;;;;19.95;63.82;99294.80;234042;1198;139773;-63
2021/09/14 08:10:29;;;;;;;20.70;9.40;;;;;;;20.08;63.69;99296.59;233937;1198;139528;-61
2021/09/14 08:15:32;;;;;;;17.00;9.70;;;;;;;20.20;63.65;99297.33;234123;1194;138594;-62
2021/09/14 08:20:35;;;;;;;14.70;10.10;;;;;;;20.28;63.15;99292.63;234285;1198;138528;-61
2021/09/14 08:25:38;;;;;;;15.10;9.10;;;;;;;20.36;63.13;99298.01;233968;1198;138835;-62
2021/09/14 08:30:41;;;;;;;13.90;8.80;;;;;;;20.40;62.78;99296.27;234065;1198;139470;-62
2021/09/14 08:35:44;;;;;;;148.60;94.50;;;;;;;20.43;62.57;99295.40;234102;1196;139963;-62
2021/09/14 08:40:48;;;;;;;37.40;18.10;;;;;;;20.49;62.43;99290.74;234174;1198;139592;-64
2021/09/14 08:45:51;;;;;;;24.00;13.50;;;;;;;20.54;62.25;99286.22;234184;1198;139274;-62
2021/09/14 08:51:00;;;;;;;23.10;13.70;;;;;;;20.59;62.11;99286.75;234124;1198;138838;-63
2021/09/14 08:56:09;;;;;;;15.60;9.40;;;;;;;20.61;62.03;99289.03;234082;1197;138894;-63
2021/09/14 09:01:13;;;;;;;21.70;11.30;;;;;;;20.69;61.77;99291.48;234263;1198;139155;-61
2021/09/14 09:06:17;;;;;;;17.80;10.40;;;;;;;20.78;61.68;99290.92;234329;1198;138759;-63
2021/09/14 09:11:20;;;;;;;18.80;10.40;;;;;;;20.86;61.64;99297.13;234210;1198;138777;-62
2021/09/14 09:16:24;;;;;;;20.30;8.90;;;;;;;20.90;61.49;99298.15;234225;1198;138911;-64
2021/09/14 09:21:38;;;;;;;17.00;9.30;;;;;;;20.92;61.32;99296.04;234239;1198;139065;-62
2021/09/14 09:26:43;;;;;;;13.50;8.40;;;;;;;20.93;61.09;99296.97;234216;1198;138439;-63
2021/09/14 09:31:48;;;;;;;;;;;;;;;20.94;61.04;99298.62;234014;1198;139112;-64
2021/09/14 09:37:08;;;;;;;14.50;7.50;;;;;;;20.94;60.97;99302.48;234203;1198;125304;-63
2021/09/14 09:42:12;;;;;;;10.70;6.60;;;;;;;20.92;60.78;99306.11;234337;1197;139911;-62
2021/09/14 09:47:16;;;;;;;12.30;6.60;;;;;;;20.91;60.46;99305.52;234000;1198;139460;-63
2021/09/14 09:52:20;;;;;;;10.80;5.80;;;;;;;20.91;60.35;99306.34;233950;1198;138387;-63
2021/09/14 09:57:24;;;;;;;10.00;6.40;;;;;;;20.90;60.22;99301.96;233843;1198;139953;-63
2021/09/14 10:02:28;;;;;;;11.80;6.00;;;;;;;20.89;60.16;99296.52;234057;1198;138782;-63
2021/09/14 10:07:32;;;;;;;8.40;6.20;;;;;;;20.87;60.01;99295.74;233953;1198;140998;-63
2021/09/14 10:12:36;;;;;;;11.40;6.90;;;;;;;20.94;60.21;99287.86;234126;1195;138836;-64
2021/09/14 10:17:48;;;;;;;9.80;6.70;;;;;;;21.04;60.01;99285.38;234191;1198;139010;-64
2021/09/14 10:23:01;;;;;;;9.80;5.70;;;;;;;21.13;59.69;99288.71;234203;1198;138655;-63
2021/09/14 10:28:09;;;;;;;9.40;6.20;;;;;;;21.21;59.33;99285.45;234157;1198;138872;-63
2021/09/14 10:33:29;;;;;;;8.20;5.90;;;;;;;21.37;59.29;99282.44;233809;1198;140865;-63
2021/09/14 10:38:38;;;;;;;12.00;7.40;;;;;;;21.50;58.90;99282.27;233986;1198;138702;-63
2021/09/14 10:43:52;;;;;;;17.80;11.70;;;;;;;21.57;58.70;99280.59;234217;1198;139065;-64
2021/09/14 10:48:55;;;;;;;14.50;8.30;;;;;;;21.56;58.35;99288.55;234066;1198;139333;-64
2021/09/14 10:54:00;;;;;;;15.80;7.10;;;;;;;21.50;58.29;99289.94;233948;1198;138869;-63
2021/09/14 10:59:03;;;;;;;11.00;6.70;;;;;;;21.43;58.09;99290.29;234154;1198;139267;-65
2021/09/14 11:04:07;;;;;;;12.50;7.10;;;;;;;21.37;58.01;99289.08;234195;1198;138632;-63
2021/09/14 11:09:09;;;;;;;14.50;6.90;;;;;;;21.38;58.16;99289.89;234195;1198;139246;-64
2021/09/14 11:14:13;;;;;;;9.70;6.80;;;;;;;21.43;58.21;99290.98;234257;1198;139050;-65
2021/09/14 11:19:24;;;;;;;11.60;6.90;;;;;;;21.44;58.18;99287.31;233924;1198;138689;-64
2021/09/14 11:24:27;;;;;;;12.40;9.20;;;;;;;21.45;58.20;99285.38;234243;1198;138668;-64
2021/09/14 11:29:30;;;;;;;14.50;10.30;;;;;;;21.45;58.13;99279.40;234278;1198;138839;-63
2021/09/14 11:34:33;;;;;;;10.30;7.50;;;;;;;21.43;58.05;99278.17;234051;1198;139898;-63
2021/09/14 11:39:37;;;;;;;9.60;7.00;;;;;;;21.43;58.02;99273.84;234215;1198;140977;-64
2021/09/14 11:44:42;;;;;;;13.00;6.80;;;;;;;21.50;58.07;99270.53;234271;1198;138641;-63
2021/09/14 11:49:52;;;;;;;9.40;7.30;;;;;;;21.70;58.11;99266.22;234153;1198;138695;-63
2021/09/14 11:54:55;;;;;;;8.70;7.10;;;;;;;21.81;57.99;99267.88;234119;1198;139676;-62
2021/09/14 12:00:13;;;;;;;9.40;7.30;;;;;;;22.03;57.99;99264.66;234087;1197;138945;-64
2021/09/14 12:05:20;;;;;;;9.30;6.40;;;;;;;22.17;57.67;99265.38;234180;1198;139110;-64
2021/09/14 12:10:27;;;;;;;10.00;6.40;;;;;;;22.20;57.34;99263.56;234168;1198;138799;-63
2021/09/14 12:15:31;;;;;;;8.60;6.90;;;;;;;22.20;57.25;99257.70;233942;1198;138684;-64
2021/09/14 12:20:34;;;;;;;9.20;6.60;;;;;;;22.18;56.92;99258.00;234165;1198;138954;-62
2021/09/14 12:25:37;;;;;;;10.20;6.40;;;;;;;22.29;56.98;99256.30;234249;1198;138203;-63
2021/09/14 12:30:40;;;;;;;26.80;20.10;;;;;;;22.36;56.80;99257.17;234057;1197;138919;-62
2021/09/14 12:35:44;;;;;;;11.50;8.10;;;;;;;22.39;56.64;99257.59;234031;1198;139716;-63
2021/09/14 12:40:47;;;;;;;9.10;7.20;;;;;;;22.56;56.67;99251.77;233996;1198;138738;-62
2021/09/14 12:45:50;;;;;;;9.90;7.30;;;;;;;22.80;56.54;99241.59;234235;1198;139813;-63
2021/09/14 12:50:55;;;;;;;11.20;7.40;;;;;;;22.99;56.28;99242.85;234058;1198;139079;-63
2021/09/14 12:55:58;;;;;;;11.80;8.00;;;;;;;23.07;55.76;99239.87;233981;1198;138105;-63
2021/09/14 13:01:18;;;;;;;11.40;7.20;;;;;;;23.04;55.37;99236.65;234118;1198;139048;-65
2021/09/14 13:06:21;;;;;;;63.60;40.40;;;;;;;22.98;55.17;99232.16;234210;1198;139351;-62
2021/09/14 13:11:24;;;;;;;15.10;11.80;;;;;;;22.98;55.18;99230.91;233987;1198;139152;-63
2021/09/14 13:16:27;;;;;;;14.40;10.50;;;;;;;22.97;55.20;99231.05;234331;1198;138862;-63
2021/09/14 13:21:30;;;;;;;12.90;8.00;;;;;;;22.94;55.22;99226.30;233798;1198;138773;-64
2021/09/14 13:26:33;;;;;;;11.70;8.40;;;;;;;22.93;55.16;99223.47;234204;1198;139255;-64
2021/09/14 13:31:37;;;;;;;12.60;8.20;;;;;;;22.91;54.76;99222.77;234323;1198;138757;-61
2021/09/14 13:36:40;;;;;;;12.90;8.30;;;;;;;22.86;54.32;99220.60;234356;1197;139103;-63
2021/09/14 13:41:48;;;;;;;15.30;8.30;;;;;;;22.78;54.15;99216.62;234294;1198;141142;-64
2021/09/14 13:46:53;;;;;;;15.00;7.40;;;;;;;22.72;54.38;99213.16;234074;1198;140719;-63
2021/09/14 13:51:56;;;;;;;11.00;6.10;;;;;;;22.78;54.52;99209.42;234206;1198;138516;-64
2021/09/14 13:56:59;;;;;;;12.10;6.20;;;;;;;22.66;54.26;99205.13;233941;1198;138743;-65
2021/09/14 14:02:02;;;;;;;11.10;6.30;;;;;;;22.44;54.22;99204.23;234221;1198;140432;-64
2021/09/14 14:07:06;;;;;;;9.80;6.60;;;;;;;22.26;54.46;99207.80;234257;1197;139918;-65
2021/09/14 14:12:09;;;;;;;9.50;6.60;;;;;;;22.12;54.50;99204.81;234472;1197;139193;-63
2021/09/14 14:17:12;;;;;;;10.80;6.50;;;;;;;22.01;54.78;99200.27;234273;1197;139454;-63
2021/09/14 14:22:15;;;;;;;8.80;6.40;;;;;;;21.94;54.94;99194.83;234313;1197;138539;-64
2021/09/14 14:27:18;;;;;;;11.80;6.50;;;;;;;21.94;55.00;99187.37;234236;1197;140158;-62
2021/09/14 14:32:21;;;;;;;10.40;6.90;;;;;;;21.95;55.17;99183.09;234321;1198;138054;-62
2021/09/14 14:37:24;;;;;;;11.60;7.00;;;;;;;21.95;55.10;99181.86;234217;1197;139013;-63
2021/09/14 14:42:27;;;;;;;9.80;6.80;;;;;;;21.90;55.20;99184.17;234477;1196;138750;-63
2021/09/14 14:47:31;;;;;;;11.10;7.40;;;;;;;21.86;55.15;99184.64;234379;1197;139055;-62
2021/09/14 14:52:34;;;;;;;10.50;7.40;;;;;;;21.83;55.12;99182.96;234375;1194;138976;-62
2021/09/14 14:57:39;;;;;;;9.90;7.10;;;;;;;21.80;55.04;99188.18;233913;1197;138884;-61
2021/09/14 15:02:44;;;;;;;11.30;7.10;;;;;;;21.78;55.09;99186.81;234066;1198;139107;-62
2021/09/14 15:07:47;;;;;;;15.00;6.70;;;;;;;21.75;55.17;99186.33;234376;1197;138466;-60
2021/09/14 15:12:52;;;;;;;9.10;7.00;;;;;;;21.73;55.20;99190.55;234044;1198;138470;-63
2021/09/14 15:17:55;;;;;;;12.00;6.90;;;;;;;21.71;55.29;99192.15;234119;1196;138592;-60
2021/09/14 15:22:58;;;;;;;8.30;6.60;;;;;;;21.70;55.47;99190.50;234381;1196;138472;-61
2021/09/14 15:28:01;;;;;;;9.80;6.60;;;;;;;21.70;55.55;99194.27;233995;1197;138891;-62
2021/09/14 15:33:04;;;;;;;12.50;6.40;;;;;;;21.67;55.54;99198.00;233453;1198;138101;-61
2021/09/14 15:38:16;;;;;;;12.10;8.00;;;;;;;21.65;55.60;99196.77;234415;1193;138778;-62
2021/09/14 15:43:22;;;;;;;14.70;7.30;;;;;;;21.63;55.70;99199.70;234003;1197;138585;-63
2021/09/14 15:48:28;;;;;;;11.20;6.90;;;;;;;21.62;55.75;99198.58;234435;1197;138307;-65
2021/09/14 15:53:31;;;;;;;113.20;80.70;;;;;;;21.60;55.79;99201.80;234235;1198;138789;-64
2021/09/14 15:58:38;;;;;;;15.80;13.00;;;;;;;21.58;55.77;99203.45;234242;1198;138760;-62
2021/09/14 16:03:42;;;;;;;16.10;11.40;;;;;;;21.56;55.81;99207.73;234073;1198;139268;-64
2021/09/14 16:08:46;;;;;;;9.40;7.20;;;;;;;21.51;55.73;99214.02;234064;1198;139180;-63
2021/09/14 16:13:49;;;;;;;13.00;8.90;;;;;;;21.45;55.81;99216.55;234107;1198;138817;-64
2021/09/14 16:18:52;;;;;;;10.10;6.40;;;;;;;21.41;55.79;99228.71;234154;1198;138527;-65
2021/09/14 16:23:56;;;;;;;8.70;6.70;;;;;;;21.34;55.82;99230.02;234113;1198;138282;-63
2021/09/14 16:28:59;;;;;;;505.70;377.00;;;;;;;21.26;55.89;99231.52;233455;1198;138947;-64
2021/09/14 16:34:02;;;;;;;33.10;22.30;;;;;;;21.19;56.10;99228.83;233841;1198;140579;-65
2021/09/14 16:39:05;;;;;;;21.40;14.80;;;;;;;21.12;56.43;99229.25;234086;1198;139197;-64
2021/09/14 16:44:08;;;;;;;13.90;7.50;;;;;;;21.05;56.63;99229.40;233762;1198;139442;-65
2021/09/14 16:49:11;;;;;;;370.00;272.10;;;;;;;20.93;56.62;99234.52;233982;1198;138770;-63
2021/09/14 16:54:14;;;;;;;233.90;190.90;;;;;;;20.84;56.86;99236.58;234135;1198;139181;-66
2021/09/14 16:59:18;;;;;;;32.80;21.40;;;;;;;20.74;57.04;99229.45;234095;1198;139268;-65
2021/09/14 17:04:22;;;;;;;27.00;19.80;;;;;;;20.65;57.23;99233.09;233366;1198;139521;-65
2021/09/14 17:09:25;;;;;;;15.60;8.70;;;;;;;20.66;57.73;99233.73;234086;1198;138422;-64
2021/09/14 17:14:28;;;;;;;12.80;8.20;;;;;;;20.59;57.58;99233.53;234126;1198;138793;-62
2021/09/14 17:19:34;;;;;;;15.80;8.40;;;;;;;20.40;57.47;99235.00;234060;1198;139065;-62
2021/09/14 17:24:37;;;;;;;;;;;;;;;20.30;58.08;99240.91;233595;1198;139385;-63
2021/09/14 17:29:40;;;;;;;17.20;11.50;;;;;;;20.40;58.76;99240.44;234050;1199;126010;-64
2021/09/14 17:34:43;;;;;;;20.10;12.20;;;;;;;20.55;58.90;99243.48;233881;1197;139553;-67
2021/09/14 17:39:46;;;;;;;21.90;12.40;;;;;;;20.63;58.80;99248.82;233956;1198;139812;-66
2021/09/14 17:44:50;;;;;;;19.90;11.60;;;;;;;20.63;58.52;99249.30;233914;1198;139275;-67
2021/09/14 17:49:53;;;;;;;17.40;11.00;;;;;;;20.65;58.82;99252.77;233964;1198;138984;-65
2021/09/14 17:54:56;;;;;;;15.90;11.40;;;;;;;20.67;58.77;99252.57;234007;1198;138752;-64
2021/09/14 17:59:59;;;;;;;18.10;11.20;;;;;;;20.61;58.65;99257.63;234095;1199;139709;-65
2021/09/14 18:05:12;;;;;;;360.30;274.50;;;;;;;20.56;58.76;99260.85;233882;1198;139174;-63
2021/09/14 18:10:15;;;;;;;29.20;20.00;;;;;;;20.44;58.38;99262.79;234023;1198;140517;-65
2021/09/14 18:15:19;;;;;;;25.40;14.60;;;;;;;20.20;58.08;99262.73;234137;1198;139260;-66
2021/09/14 18:20:22;;;;;;;22.30;13.20;;;;;;;19.93;58.24;99260.77;233833;1198;138925;-62
2021/09/14 18:25:24;;;;;;;23.10;14.80;;;;;;;19.70;58.59;99264.61;233754;1199;138665;-64
2021/09/14 18:30:30;;;;;;;20.90;13.70;;;;;;;19.50;58.69;99271.49;234199;1198;139086;-63
2021/09/14 18:35:33;;;;;;;20.70;12.60;;;;;;;19.31;59.00;99274.02;233971;1198;139137;-64
2021/09/14 18:40:37;;;;;;;18.60;12.30;;;;;;;19.20;59.21;99273.84;233658;1198;139782;-61
2021/09/14 18:45:40;;;;;;;17.50;12.60;;;;;;;19.10;59.45;99272.25;233726;1198;139227;-62
2021/09/14 18:50:43;;;;;;;25.40;14.10;;;;;;;19.02;59.73;99274.28;234032;1198;139250;-62
2021/09/14 18:55:46;;;;;;;23.30;14.60;;;;;;;18.94;59.84;99281.64;233945;1198;140167;-62
2021/09/14 19:00:49;;;;;;;23.70;14.40;;;;;;;18.86;59.94;99285.76;234176;1198;140218;-65
2021/09/14 19:05:57;;;;;;;28.20;15.10;;;;;;;18.78;60.17;99282.02;234221;1198;138805;-62
2021/09/14 19:11:01;;;;;;;22.30;14.30;;;;;;;18.67;60.20;99282.11;233731;1198;138929;-65
2021/09/14 19:16:06;;;;;;;22.00;15.20;;;;;;;18.56;60.33;99285.14;234002;1198;140874;-62
2021/09/14 19:21:10;;;;;;;21.30;14.00;;;;;;;18.46;60.57;99287.34;233994;1198;139466;-61
2021/09/14 19:26:13;;;;;;;22.70;14.60;;;;;;;18.36;60.61;99282.23;234076;1198;140591;-61
2021/09/14 19:31:16;;;;;;;25.80;14.90;;;;;;;18.34;60.91;99286.92;234102;1198;141389;-61
2021/09/14 19:36:19;;;;;;;23.60;16.30;;;;;;;18.33;61.11;99291.90;234059;1197;139324;-65
2021/09/14 19:41:22;;;;;;;21.80;15.60;;;;;;;18.29;61.08;99294.58;234163;1198;139706;-65
2021/09/14 19:46:26;;;;;;;23.80;15.10;;;;;;;18.25;61.36;99293.02;234250;1198;139324;-66
2021/09/14 19:51:29;;;;;;;25.80;15.40;;;;;;;18.17;61.38;99291.99;233918;1198;138585;-65
2021/09/14 19:56:32;;;;;;;22.30;15.40;;;;;;;18.09;61.39;99292.60;234228;1198;139700;-65
2021/09/14 20:01:35;;;;;;;20.90;13.40;;;;;;;18.00;61.54;99290.50;233821;1198;138861;-65
2021/09/14 20:06:38;;;;;;;20.80;14.10;;;;;;;17.93;61.77;99287.91;234175;1198;139464;-66
2021/09/14 20:11:42;;;;;;;22.70;16.50;;;;;;;17.88;61.88;99293.20;234274;1198;139352;-65
2021/09/14 20:16:46;;;;;;;23.40;15.40;;;;;;;17.84;61.89;99290.32;234086;1198;138749;-66
2021/09/14 20:21:50;;;;;;;22.30;15.30;;;;;;;17.81;62.10;99290.05;234120;1198;139401;-65
2021/09/14 20:26:54;;;;;;;25.10;15.50;;;;;;;17.74;62.16;99294.77;233762;1198;139816;-65
2021/09/14 20:31:57;;;;;;;23.20;15.60;;;;;;;17.67;62.15;99288.20;234025;1198;138686;-67
2021/09/14 20:37:01;;;;;;;22.50;14.80;;;;;;;17.59;62.31;99293.55;234105;1198;138965;-65
2021/09/14 20:42:04;;;;;;;24.50;14.80;;;;;;;17.52;62.53;99292.90;234069;1198;138886;-64
2021/09/14 20:47:07;;;;;;;20.40;13.90;;;;;;;17.46;62.52;99294.28;234066;1198;141282;-64
2021/09/14 20:52:10;;;;;;;20.80;14.60;;;;;;;17.43;62.82;99294.08;233832;1198;139778;-65
2021/09/14 20:57:14;;;;;;;21.10;14.90;;;;;;;17.40;62.96;99292.92;233777;1198;139128;-65
2021/09/14 21:02:17;;;;;;;24.20;15.30;;;;;;;17.35;62.84;99288.08;233958;1198;139797;-65
2021/09/14 21:07:20;;;;;;;28.10;15.30;;;;;;;17.30;63.20;99287.05;234167;1198;139423;-65
2021/09/14 21:12:23;;;;;;;23.50;15.20;;;;;;;17.24;62.98;99283.85;234101;1198;139110;-66
2021/09/14 21:17:27;;;;;;;26.90;14.40;;;;;;;17.15;63.03;99282.30;234077;1198;139650;-64
2021/09/14 21:22:30;;;;;;;717.80;523.40;;;;;;;17.08;63.21;99282.52;234090;1198;139941;-62
2021/09/14 21:27:36;;;;;;;32.80;19.30;;;;;;;17.08;63.51;99279.64;234202;1198;139941;-66
2021/09/14 21:32:39;;;;;;;27.80;16.40;;;;;;;17.07;63.34;99282.61;234067;1198;139417;-64
2021/09/14 21:37:42;;;;;;;24.20;16.30;;;;;;;17.03;63.57;99283.98;234140;1198;139152;-61
2021/09/14 21:42:45;;;;;;;26.10;16.30;;;;;;;16.99;63.59;99277.95;233767;1198;139115;-65
2021/09/14 21:47:48;;;;;;;24.60;17.10;;;;;;;16.92;63.57;99274.33;234195;1198;138622;-64
2021/09/14 21:52:52;;;;;;;23.30;15.40;;;;;;;16.83;63.63;99268.31;234221;1198;139114;-65
2021/09/14 21:57:57;;;;;;;;;;;;;;;16.74;63.78;99266.16;234180;1198;139307;-65
2021/09/14 22:03:01;;;;;;;21.70;15.30;;;;;;;16.71;63.81;99266.95;233712;1197;126077;-65
2021/09/14 22:08:06;;;;;;;25.90;17.00;;;;;;;16.68;63.96;99267.39;233822;1198;139396;-66
2021/09/14 22:13:11;;;;;;;25.90;17.00;;;;;;;16.65;64.19;99266.17;234295;1198;139014;-67
2021/09/14 22:18:15;;;;;;;23.10;16.80;;;;;;;16.61;64.13;99267.22;234530;1198;139873;-66
2021/09/14 22:23:19;;;;;;;22.20;17.10;;;;;;;16.57;64.13;99270.31;234014;1198;138564;-64
2021/09/14 22:28:23;;;;;;;20.90;15.90;;;;;;;16.49;64.22;99266.80;233940;1198;140528;-64
2021/09/14 22:33:27;;;;;;;25.00;16.30;;;;;;;16.44;64.35;99266.33;234102;1198;139795;-67
2021/09/14 22:38:33;;;;;;;24.30;17.00;;;;;;;16.43;64.45;99268.80;234028;1200;140642;-65
2021/09/14 22:43:38;;;;;;;28.60;17.40;;;;;;;16.44;64.71;99266.38;234212;1198;139838;-65
2021/09/14 22:48:43;;;;;;;27.00;17.30;;;;;;;16.40;64.74;99265.77;234289;1198;138938;-68
2021/09/14 22:53:46;;;;;;;24.80;17.20;;;;;;;16.36;64.68;99264.36;234442;1198;138641;-65
2021/09/14 22:58:50;;;;;;;26.20;17.90;;;;;;;16.30;64.63;99262.63;233593;1198;138801;-62
2021/09/14 23:03:55;;;;;;;27.80;15.90;;;;;;;16.23;64.56;99264.28;232940;1198;140140;-64
2021/09/14 23:08:58;;;;;;;24.10;16.00;;;;;;;16.18;64.60;99265.98;234283;1198;139642;-66
2021/09/14 23:14:01;;;;;;;24.30;16.30;;;;;;;16.18;64.97;99264.53;234026;1197;140238;-66
2021/09/14 23:19:04;;;;;;;25.80;17.10;;;;;;;16.16;64.75;99261.70;234083;1198;139301;-69
2021/09/14 23:24:07;;;;;;;22.70;17.00;;;;;;;16.11;64.98;99260.79;234396;1198;138935;-63
2021/09/14 23:29:10;;;;;;;23.00;17.00;;;;;;;16.06;64.90;99264.95;233968;1198;138836;-65
2021/09/14 23:34:13;;;;;;;26.20;16.30;;;;;;;16.00;64.88;99261.20;234138;1198;139217;-63
2021/09/14 23:39:16;;;;;;;23.40;15.90;;;;;;;15.94;64.92;99249.00;234032;1198;139276;-65